sensor_id;sensor_type;location;lat;lon;timestamp;temperature;humidity
17956;DHT22;27666;51.498;11.966;2024-02-23T00:00:55;12.50;99.90
17956;DHT22;27666;51.498;11.966;2024-02-23T00:03:42;12.50;99.90
17956;DHT22;27666;51.498;11.966;2024-02-23T00:06:29;12.50;99.90
17956;DHT22;27666;51.498;11.966;2024-02-23T00:09:16;12.50;99.90
17956;DHT22;27666;51.498;11.966;2024-02-23T00:12:04;12.50;99.90
17956;DHT22;27666;51.498;11.966;2024-02-23T00:14:50;12.50;99.90
17956;DHT22;27666;51.498;11.966;2024-02-23T00:17:37;12.50;99.90
17956;DHT22;27666;51.498;11.966;2024-02-23T00:20:24;12.50;99.90
17956;DHT22;27666;51.498;11.966;2024-02-23T00:23:11;12.50;99.90
17956;DHT22;27666;51.498;11.966;2024-02-23T00:25:59;12.50;99.90
17956;DHT22;27666;51.498;11.966;2024-02-23T00:28:46;12.50;99.90
17956;DHT22;27666;51.498;11.966;2024-02-23T00:31:32;12.40;99.90
17956;DHT22;27666;51.498;11.966;2024-02-23T00:34:22;12.30;99.90
17956;DHT22;27666;51.498;11.966;2024-02-23T00:37:09;12.30;99.90
17956;DHT22;27666;51.498;11.966;2024-02-23T00:39:55;12.20;99.90
17956;DHT22;27666;51.498;11.966;2024-02-23T00:42:43;12.10;99.90
17956;DHT22;27666;51.498;11.966;2024-02-23T00:45:30;12.10;99.90
17956;DHT22;27666;51.498;11.966;2024-02-23T00:48:18;12.00;99.90
17956;DHT22;27666;51.498;11.966;2024-02-23T00:51:05;11.90;99.90
17956;DHT22;27666;51.498;11.966;2024-02-23T00:53:52;11.90;99.90
17956;DHT22;27666;51.498;11.966;2024-02-23T00:56:39;11.80;99.90
17956;DHT22;27666;51.498;11.966;2024-02-23T00:59:37;11.90;99.90
17956;DHT22;27666;51.498;11.966;2024-02-23T01:02:24;11.80;99.90
17956;DHT22;27666;51.498;11.966;2024-02-23T01:05:10;11.80;99.90
17956;DHT22;27666;51.498;11.966;2024-02-23T01:07:57;11.70;99.90
17956;DHT22;27666;51.498;11.966;2024-02-23T01:10:44;11.70;99.90
17956;DHT22;27666;51.498;11.966;2024-02-23T01:13:31;11.70;99.90
17956;DHT22;27666;51.498;11.966;2024-02-23T01:19:05;11.60;99.90
17956;DHT22;27666;51.498;11.966;2024-02-23T01:21:52;11.50;99.90
17956;DHT22;27666;51.498;11.966;2024-02-23T01:24:44;11.40;99.90
17956;DHT22;27666;51.498;11.966;2024-02-23T01:27:31;11.40;99.90
17956;DHT22;27666;51.498;11.966;2024-02-23T01:30:17;11.40;99.90
17956;DHT22;27666;51.498;11.966;2024-02-23T01:33:06;11.30;99.90
17956;DHT22;27666;51.498;11.966;2024-02-23T01:35:52;11.20;99.90
17956;DHT22;27666;51.498;11.966;2024-02-23T01:38:39;11.30;99.90
17956;DHT22;27666;51.498;11.966;2024-02-23T01:41:28;11.20;99.90
17956;DHT22;27666;51.498;11.966;2024-02-23T01:44:15;11.20;99.90
17956;DHT22;27666;51.498;11.966;2024-02-23T01:47:02;11.10;99.90
17956;DHT22;27666;51.498;11.966;2024-02-23T01:49:51;11.10;99.90
17956;DHT22;27666;51.498;11.966;2024-02-23T01:52:40;11.00;99.90
17956;DHT22;27666;51.498;11.966;2024-02-23T01:55:27;11.00;99.90
17956;DHT22;27666;51.498;11.966;2024-02-23T01:58:17;10.90;99.90
17956;DHT22;27666;51.498;11.966;2024-02-23T02:01:04;10.90;99.90
17956;DHT22;27666;51.498;11.966;2024-02-23T02:03:51;10.80;99.90
17956;DHT22;27666;51.498;11.966;2024-02-23T02:06:39;10.70;99.90
17956;DHT22;27666;51.498;11.966;2024-02-23T02:09:25;10.70;99.90
17956;DHT22;27666;51.498;11.966;2024-02-23T02:12:12;10.60;99.90
17956;DHT22;27666;51.498;11.966;2024-02-23T02:14:59;10.60;99.90
17956;DHT22;27666;51.498;11.966;2024-02-23T02:17:46;10.60;99.90
17956;DHT22;27666;51.498;11.966;2024-02-23T02:20:33;10.60;99.90
17956;DHT22;27666;51.498;11.966;2024-02-23T02:23:23;10.50;99.90
17956;DHT22;27666;51.498;11.966;2024-02-23T02:26:12;10.50;99.90
17956;DHT22;27666;51.498;11.966;2024-02-23T02:28:58;10.50;99.90
17956;DHT22;27666;51.498;11.966;2024-02-23T02:31:45;10.60;99.90
17956;DHT22;27666;51.498;11.966;2024-02-23T02:34:31;10.70;99.90
17956;DHT22;27666;51.498;11.966;2024-02-23T02:37:18;10.70;99.90
17956;DHT22;27666;51.498;11.966;2024-02-23T02:40:07;10.60;99.90
17956;DHT22;27666;51.498;11.966;2024-02-23T02:42:53;10.70;99.90
17956;DHT22;27666;51.498;11.966;2024-02-23T02:45:40;10.60;99.90
17956;DHT22;27666;51.498;11.966;2024-02-23T02:48:27;10.80;99.90
17956;DHT22;27666;51.498;11.966;2024-02-23T02:51:13;10.60;99.90
17956;DHT22;27666;51.498;11.966;2024-02-23T02:54:01;10.60;99.90
17956;DHT22;27666;51.498;11.966;2024-02-23T02:56:49;10.60;99.90
17956;DHT22;27666;51.498;11.966;2024-02-23T02:59:39;10.50;99.90
17956;DHT22;27666;51.498;11.966;2024-02-23T03:02:28;10.50;99.90
17956;DHT22;27666;51.498;11.966;2024-02-23T03:05:17;10.30;99.90
17956;DHT22;27666;51.498;11.966;2024-02-23T03:08:04;10.40;99.90
17956;DHT22;27666;51.498;11.966;2024-02-23T03:10:50;10.30;99.90
17956;DHT22;27666;51.498;11.966;2024-02-23T03:19:14;10.10;99.90
17956;DHT22;27666;51.498;11.966;2024-02-23T03:22:01;10.00;99.90
17956;DHT22;27666;51.498;11.966;2024-02-23T03:24:47;9.90;99.90
17956;DHT22;27666;51.498;11.966;2024-02-23T03:27:35;9.90;99.90
17956;DHT22;27666;51.498;11.966;2024-02-23T03:30:23;9.90;99.90
17956;DHT22;27666;51.498;11.966;2024-02-23T03:33:10;9.80;99.90
17956;DHT22;27666;51.498;11.966;2024-02-23T03:35:58;9.70;99.90
17956;DHT22;27666;51.498;11.966;2024-02-23T03:38:44;9.70;99.90
17956;DHT22;27666;51.498;11.966;2024-02-23T03:41:30;9.60;99.90
17956;DHT22;27666;51.498;11.966;2024-02-23T03:44:17;9.60;99.90
17956;DHT22;27666;51.498;11.966;2024-02-23T03:47:06;9.50;99.90
17956;DHT22;27666;51.498;11.966;2024-02-23T03:49:52;9.50;99.90
17956;DHT22;27666;51.498;11.966;2024-02-23T03:52:39;9.50;99.90
17956;DHT22;27666;51.498;11.966;2024-02-23T03:55:26;9.40;99.90
17956;DHT22;27666;51.498;11.966;2024-02-23T03:58:12;9.30;99.90
17956;DHT22;27666;51.498;11.966;2024-02-23T04:00:59;9.30;99.90
17956;DHT22;27666;51.498;11.966;2024-02-23T04:03:46;9.30;99.90
17956;DHT22;27666;51.498;11.966;2024-02-23T04:06:33;9.30;99.90
17956;DHT22;27666;51.498;11.966;2024-02-23T04:09:21;9.30;99.90
17956;DHT22;27666;51.498;11.966;2024-02-23T04:12:08;9.30;99.90
17956;DHT22;27666;51.498;11.966;2024-02-23T04:14:55;9.30;99.90
17956;DHT22;27666;51.498;11.966;2024-02-23T04:17:42;9.20;99.90
17956;DHT22;27666;51.498;11.966;2024-02-23T04:20:29;9.30;99.90
17956;DHT22;27666;51.498;11.966;2024-02-23T04:23:17;9.20;99.90
17956;DHT22;27666;51.498;11.966;2024-02-23T04:26:04;9.20;99.90
17956;DHT22;27666;51.498;11.966;2024-02-23T04:28:50;9.10;99.90
17956;DHT22;27666;51.498;11.966;2024-02-23T04:31:37;9.10;99.90
17956;DHT22;27666;51.498;11.966;2024-02-23T04:34:24;9.10;99.90
17956;DHT22;27666;51.498;11.966;2024-02-23T04:37:12;9.10;99.90
17956;DHT22;27666;51.498;11.966;2024-02-23T04:39:58;9.00;99.90
17956;DHT22;27666;51.498;11.966;2024-02-23T04:42:45;9.10;99.90
17956;DHT22;27666;51.498;11.966;2024-02-23T04:45:33;9.10;99.90
17956;DHT22;27666;51.498;11.966;2024-02-23T04:48:19;9.10;99.90
17956;DHT22;27666;51.498;11.966;2024-02-23T04:51:06;9.10;99.90
17956;DHT22;27666;51.498;11.966;2024-02-23T04:53:56;9.00;99.90
17956;DHT22;27666;51.498;11.966;2024-02-23T04:56:43;9.00;99.90
17956;DHT22;27666;51.498;11.966;2024-02-23T04:59:29;9.00;99.90
17956;DHT22;27666;51.498;11.966;2024-02-23T05:02:17;9.00;99.90
17956;DHT22;27666;51.498;11.966;2024-02-23T05:05:04;9.00;99.90
17956;DHT22;27666;51.498;11.966;2024-02-23T05:07:51;9.00;99.90
17956;DHT22;27666;51.498;11.966;2024-02-23T05:10:39;9.00;99.90
17956;DHT22;27666;51.498;11.966;2024-02-23T05:13:25;9.00;99.90
17956;DHT22;27666;51.498;11.966;2024-02-23T05:16:13;9.00;99.90
17956;DHT22;27666;51.498;11.966;2024-02-23T05:19:00;9.10;99.90
17956;DHT22;27666;51.498;11.966;2024-02-23T05:21:46;9.10;99.90
17956;DHT22;27666;51.498;11.966;2024-02-23T05:24:33;9.00;99.90
17956;DHT22;27666;51.498;11.966;2024-02-23T05:27:20;9.00;99.90
17956;DHT22;27666;51.498;11.966;2024-02-23T05:30:08;9.00;99.90
17956;DHT22;27666;51.498;11.966;2024-02-23T05:32:55;8.80;99.90
17956;DHT22;27666;51.498;11.966;2024-02-23T05:35:42;8.80;99.90
17956;DHT22;27666;51.498;11.966;2024-02-23T05:38:30;8.70;99.90
17956;DHT22;27666;51.498;11.966;2024-02-23T05:41:17;8.70;99.90
17956;DHT22;27666;51.498;11.966;2024-02-23T05:44:05;8.70;99.90
17956;DHT22;27666;51.498;11.966;2024-02-23T05:46:51;8.70;99.90
17956;DHT22;27666;51.498;11.966;2024-02-23T05:49:38;8.70;99.90
17956;DHT22;27666;51.498;11.966;2024-02-23T05:52:25;8.60;99.90
17956;DHT22;27666;51.498;11.966;2024-02-23T05:55:11;8.50;99.90
17956;DHT22;27666;51.498;11.966;2024-02-23T05:57:57;8.50;99.90
17956;DHT22;27666;51.498;11.966;2024-02-23T06:00:45;8.60;99.90
17956;DHT22;27666;51.498;11.966;2024-02-23T06:03:32;8.50;99.90
17956;DHT22;27666;51.498;11.966;2024-02-23T06:06:18;8.40;99.90
17956;DHT22;27666;51.498;11.966;2024-02-23T06:09:05;8.50;99.90
17956;DHT22;27666;51.498;11.966;2024-02-23T06:11:52;8.40;99.90
17956;DHT22;27666;51.498;11.966;2024-02-23T06:14:38;8.50;99.90
17956;DHT22;27666;51.498;11.966;2024-02-23T06:17:26;8.40;99.90
17956;DHT22;27666;51.498;11.966;2024-02-23T06:20:15;8.40;99.90
17956;DHT22;27666;51.498;11.966;2024-02-23T06:23:01;8.30;99.90
17956;DHT22;27666;51.498;11.966;2024-02-23T06:25:48;8.30;99.90
17956;DHT22;27666;51.498;11.966;2024-02-23T06:28:34;8.30;99.90
17956;DHT22;27666;51.498;11.966;2024-02-23T06:31:22;8.30;99.90
17956;DHT22;27666;51.498;11.966;2024-02-23T06:34:09;8.30;99.90
17956;DHT22;27666;51.498;11.966;2024-02-23T06:36:56;8.30;99.90
17956;DHT22;27666;51.498;11.966;2024-02-23T06:39:43;8.30;99.90
17956;DHT22;27666;51.498;11.966;2024-02-23T06:42:31;8.30;99.90
17956;DHT22;27666;51.498;11.966;2024-02-23T06:45:20;8.20;99.90
17956;DHT22;27666;51.498;11.966;2024-02-23T06:48:11;8.20;99.90
17956;DHT22;27666;51.498;11.966;2024-02-23T06:50:58;8.30;99.90
17956;DHT22;27666;51.498;11.966;2024-02-23T06:53:45;8.30;99.90
17956;DHT22;27666;51.498;11.966;2024-02-23T06:56:32;8.60;99.90
17956;DHT22;27666;51.498;11.966;2024-02-23T06:59:19;8.20;99.90
17956;DHT22;27666;51.498;11.966;2024-02-23T07:02:06;8.20;99.90
17956;DHT22;27666;51.498;11.966;2024-02-23T07:04:53;8.20;99.90
17956;DHT22;27666;51.498;11.966;2024-02-23T07:07:43;8.20;99.90
17956;DHT22;27666;51.498;11.966;2024-02-23T07:10:29;8.20;99.90
17956;DHT22;27666;51.498;11.966;2024-02-23T07:13:16;8.20;99.90
17956;DHT22;27666;51.498;11.966;2024-02-23T07:16:03;8.20;99.90
17956;DHT22;27666;51.498;11.966;2024-02-23T07:18:50;8.20;99.90
17956;DHT22;27666;51.498;11.966;2024-02-23T07:21:37;8.20;99.90
17956;DHT22;27666;51.498;11.966;2024-02-23T07:24:29;8.30;99.90
17956;DHT22;27666;51.498;11.966;2024-02-23T07:27:15;8.20;99.90
17956;DHT22;27666;51.498;11.966;2024-02-23T07:30:01;8.20;99.90
17956;DHT22;27666;51.498;11.966;2024-02-23T07:32:50;8.30;99.90
17956;DHT22;27666;51.498;11.966;2024-02-23T07:35:37;8.30;99.90
17956;DHT22;27666;51.498;11.966;2024-02-23T07:38:24;8.40;99.90
17956;DHT22;27666;51.498;11.966;2024-02-23T07:41:12;8.80;99.90
17956;DHT22;27666;51.498;11.966;2024-02-23T07:43:59;8.50;99.90
17956;DHT22;27666;51.498;11.966;2024-02-23T07:46:45;8.60;99.90
17956;DHT22;27666;51.498;11.966;2024-02-23T07:49:31;8.70;99.90
17956;DHT22;27666;51.498;11.966;2024-02-23T07:52:18;8.80;99.90
17956;DHT22;27666;51.498;11.966;2024-02-23T07:55:05;8.80;99.90
17956;DHT22;27666;51.498;11.966;2024-02-23T07:57:53;8.90;99.90
17956;DHT22;27666;51.498;11.966;2024-02-23T08:00:46;9.00;99.90
17956;DHT22;27666;51.498;11.966;2024-02-23T08:03:33;9.10;99.90
17956;DHT22;27666;51.498;11.966;2024-02-23T08:06:19;9.10;99.90
17956;DHT22;27666;51.498;11.966;2024-02-23T08:09:06;9.10;99.90
17956;DHT22;27666;51.498;11.966;2024-02-23T08:11:56;9.10;99.90
17956;DHT22;27666;51.498;11.966;2024-02-23T08:14:44;9.10;99.90
17956;DHT22;27666;51.498;11.966;2024-02-23T08:17:31;9.10;99.90
17956;DHT22;27666;51.498;11.966;2024-02-23T08:20:19;9.20;99.90
17956;DHT22;27666;51.498;11.966;2024-02-23T08:23:06;9.30;99.90
17956;DHT22;27666;51.498;11.966;2024-02-23T08:25:54;9.30;99.90
17956;DHT22;27666;51.498;11.966;2024-02-23T08:28:41;9.20;99.90
17956;DHT22;27666;51.498;11.966;2024-02-23T08:31:29;9.30;99.90
17956;DHT22;27666;51.498;11.966;2024-02-23T08:34:17;9.20;99.90
17956;DHT22;27666;51.498;11.966;2024-02-23T08:37:04;9.30;99.90
17956;DHT22;27666;51.498;11.966;2024-02-23T08:39:51;9.30;99.90
17956;DHT22;27666;51.498;11.966;2024-02-23T08:42:37;9.50;99.90
17956;DHT22;27666;51.498;11.966;2024-02-23T08:45:23;9.50;99.90
17956;DHT22;27666;51.498;11.966;2024-02-23T08:48:11;9.50;99.90
17956;DHT22;27666;51.498;11.966;2024-02-23T08:51:00;9.60;99.90
17956;DHT22;27666;51.498;11.966;2024-02-23T08:53:47;9.80;99.90
17956;DHT22;27666;51.498;11.966;2024-02-23T08:56:37;9.80;99.90
17956;DHT22;27666;51.498;11.966;2024-02-23T08:59:24;9.90;99.90
17956;DHT22;27666;51.498;11.966;2024-02-23T09:02:10;9.90;99.90
17956;DHT22;27666;51.498;11.966;2024-02-23T09:04:58;10.10;99.90
17956;DHT22;27666;51.498;11.966;2024-02-23T09:07:45;10.30;99.90
17956;DHT22;27666;51.498;11.966;2024-02-23T09:10:31;10.30;99.90
17956;DHT22;27666;51.498;11.966;2024-02-23T09:13:18;10.30;99.90
17956;DHT22;27666;51.498;11.966;2024-02-23T09:16:05;10.30;99.90
17956;DHT22;27666;51.498;11.966;2024-02-23T09:18:52;10.40;99.90
17956;DHT22;27666;51.498;11.966;2024-02-23T09:21:40;10.40;99.90
17956;DHT22;27666;51.498;11.966;2024-02-23T09:24:27;10.50;99.90
17956;DHT22;27666;51.498;11.966;2024-02-23T09:27:13;10.40;99.90
17956;DHT22;27666;51.498;11.966;2024-02-23T09:30:00;10.50;99.90
17956;DHT22;27666;51.498;11.966;2024-02-23T09:32:47;10.50;99.90
17956;DHT22;27666;51.498;11.966;2024-02-23T09:35:33;10.40;99.90
17956;DHT22;27666;51.498;11.966;2024-02-23T09:38:22;10.50;99.90
17956;DHT22;27666;51.498;11.966;2024-02-23T09:41:15;10.80;99.90
17956;DHT22;27666;51.498;11.966;2024-02-23T09:44:04;10.60;99.90
17956;DHT22;27666;51.498;11.966;2024-02-23T09:46:52;10.60;99.90
17956;DHT22;27666;51.498;11.966;2024-02-23T09:49:40;10.50;99.90
17956;DHT22;27666;51.498;11.966;2024-02-23T09:52:28;10.50;99.90
17956;DHT22;27666;51.498;11.966;2024-02-23T09:55:16;10.50;99.90
17956;DHT22;27666;51.498;11.966;2024-02-23T09:58:04;10.50;99.90
17956;DHT22;27666;51.498;11.966;2024-02-23T10:00:52;10.40;99.90
17956;DHT22;27666;51.498;11.966;2024-02-23T10:03:40;10.40;99.90
17956;DHT22;27666;51.498;11.966;2024-02-23T10:06:27;10.50;99.90
17956;DHT22;27666;51.498;11.966;2024-02-23T10:09:16;10.50;99.90
17956;DHT22;27666;51.498;11.966;2024-02-23T10:12:05;10.60;99.90
17956;DHT22;27666;51.498;11.966;2024-02-23T10:14:52;10.60;99.90
17956;DHT22;27666;51.498;11.966;2024-02-23T10:17:39;10.50;99.90
17956;DHT22;27666;51.498;11.966;2024-02-23T10:20:26;10.60;99.90
17956;DHT22;27666;51.498;11.966;2024-02-23T10:23:13;10.50;99.90
17956;DHT22;27666;51.498;11.966;2024-02-23T10:25:59;10.50;99.90
17956;DHT22;27666;51.498;11.966;2024-02-23T10:28:47;10.50;99.90
17956;DHT22;27666;51.498;11.966;2024-02-23T10:31:36;10.50;99.90
17956;DHT22;27666;51.498;11.966;2024-02-23T10:34:24;10.50;99.90
17956;DHT22;27666;51.498;11.966;2024-02-23T10:37:10;10.50;99.90
17956;DHT22;27666;51.498;11.966;2024-02-23T10:39:57;10.50;99.90
17956;DHT22;27666;51.498;11.966;2024-02-23T10:42:46;10.60;99.90
17956;DHT22;27666;51.498;11.966;2024-02-23T10:45:38;10.50;99.90
17956;DHT22;27666;51.498;11.966;2024-02-23T10:48:27;10.60;99.90
17956;DHT22;27666;51.498;11.966;2024-02-23T10:51:14;10.70;99.90
17956;DHT22;27666;51.498;11.966;2024-02-23T10:54:06;10.70;99.90
17956;DHT22;27666;51.498;11.966;2024-02-23T10:56:53;10.70;99.90
17956;DHT22;27666;51.498;11.966;2024-02-23T10:59:41;10.90;99.90
17956;DHT22;27666;51.498;11.966;2024-02-23T11:02:30;10.80;99.90
17956;DHT22;27666;51.498;11.966;2024-02-23T11:05:20;11.00;99.90
17956;DHT22;27666;51.498;11.966;2024-02-23T11:08:08;11.00;99.90
17956;DHT22;27666;51.498;11.966;2024-02-23T11:10:55;11.00;99.90
17956;DHT22;27666;51.498;11.966;2024-02-23T11:13:44;10.90;99.90
17956;DHT22;27666;51.498;11.966;2024-02-23T11:16:32;10.80;99.90
17956;DHT22;27666;51.498;11.966;2024-02-23T11:19:20;10.80;99.90
17956;DHT22;27666;51.498;11.966;2024-02-23T11:22:09;10.90;99.90
17956;DHT22;27666;51.498;11.966;2024-02-23T11:25:08;10.80;99.90
17956;DHT22;27666;51.498;11.966;2024-02-23T11:27:55;10.90;99.90
17956;DHT22;27666;51.498;11.966;2024-02-23T11:30:45;10.90;99.90
17956;DHT22;27666;51.498;11.966;2024-02-23T11:33:34;10.90;99.90
17956;DHT22;27666;51.498;11.966;2024-02-23T11:36:28;11.00;99.90
17956;DHT22;27666;51.498;11.966;2024-02-23T11:39:15;11.00;99.90
17956;DHT22;27666;51.498;11.966;2024-02-23T11:42:04;10.90;99.90
17956;DHT22;27666;51.498;11.966;2024-02-23T11:44:52;10.90;99.90
17956;DHT22;27666;51.498;11.966;2024-02-23T11:47:39;10.90;99.90
17956;DHT22;27666;51.498;11.966;2024-02-23T11:50:29;11.00;99.90
17956;DHT22;27666;51.498;11.966;2024-02-23T11:53:17;11.00;99.90
17956;DHT22;27666;51.498;11.966;2024-02-23T11:56:05;10.80;99.90
17956;DHT22;27666;51.498;11.966;2024-02-23T11:58:53;10.80;99.90
17956;DHT22;27666;51.498;11.966;2024-02-23T12:01:40;10.80;99.90
17956;DHT22;27666;51.498;11.966;2024-02-23T12:04:27;10.80;99.90
17956;DHT22;27666;51.498;11.966;2024-02-23T12:07:15;10.90;99.90
17956;DHT22;27666;51.498;11.966;2024-02-23T12:10:04;10.90;99.90
17956;DHT22;27666;51.498;11.966;2024-02-23T12:12:51;10.90;99.90
17956;DHT22;27666;51.498;11.966;2024-02-23T12:15:39;11.30;99.90
17956;DHT22;27666;51.498;11.966;2024-02-23T12:18:25;11.00;99.90
17956;DHT22;27666;51.498;11.966;2024-02-23T12:21:13;10.90;99.90
17956;DHT22;27666;51.498;11.966;2024-02-23T12:23:59;10.80;99.90
17956;DHT22;27666;51.498;11.966;2024-02-23T12:26:53;10.80;99.90
17956;DHT22;27666;51.498;11.966;2024-02-23T12:29:40;10.90;99.90
17956;DHT22;27666;51.498;11.966;2024-02-23T12:32:26;10.90;99.90
17956;DHT22;27666;51.498;11.966;2024-02-23T12:35:14;10.80;99.90
17956;DHT22;27666;51.498;11.966;2024-02-23T12:38:01;10.90;99.90
17956;DHT22;27666;51.498;11.966;2024-02-23T12:40:48;10.80;99.90
17956;DHT22;27666;51.498;11.966;2024-02-23T12:43:36;10.70;99.90
17956;DHT22;27666;51.498;11.966;2024-02-23T12:46:26;10.80;99.90
17956;DHT22;27666;51.498;11.966;2024-02-23T12:49:13;10.80;99.90
17956;DHT22;27666;51.498;11.966;2024-02-23T12:51:59;11.00;99.90
17956;DHT22;27666;51.498;11.966;2024-02-23T12:54:46;11.00;99.90
17956;DHT22;27666;51.498;11.966;2024-02-23T12:57:36;10.90;99.90
17956;DHT22;27666;51.498;11.966;2024-02-23T13:00:24;10.90;99.90
17956;DHT22;27666;51.498;11.966;2024-02-23T13:03:11;10.90;99.90
17956;DHT22;27666;51.498;11.966;2024-02-23T13:05:58;10.80;99.90
17956;DHT22;27666;51.498;11.966;2024-02-23T13:08:44;10.80;99.90
17956;DHT22;27666;51.498;11.966;2024-02-23T13:11:32;10.80;99.90
17956;DHT22;27666;51.498;11.966;2024-02-23T13:14:18;10.80;99.90
17956;DHT22;27666;51.498;11.966;2024-02-23T13:17:06;10.80;99.90
17956;DHT22;27666;51.498;11.966;2024-02-23T13:19:53;10.80;99.90
17956;DHT22;27666;51.498;11.966;2024-02-23T13:22:57;10.70;99.90
17956;DHT22;27666;51.498;11.966;2024-02-23T13:25:45;10.90;99.90
17956;DHT22;27666;51.498;11.966;2024-02-23T13:28:31;10.80;99.90
17956;DHT22;27666;51.498;11.966;2024-02-23T13:31:21;10.80;99.90
17956;DHT22;27666;51.498;11.966;2024-02-23T13:34:09;10.80;99.90
17956;DHT22;27666;51.498;11.966;2024-02-23T13:36:56;10.80;99.90
17956;DHT22;27666;51.498;11.966;2024-02-23T13:39:42;10.80;99.90
17956;DHT22;27666;51.498;11.966;2024-02-23T13:42:29;10.80;99.90
17956;DHT22;27666;51.498;11.966;2024-02-23T13:45:16;10.80;99.90
17956;DHT22;27666;51.498;11.966;2024-02-23T13:48:03;10.80;99.90
17956;DHT22;27666;51.498;11.966;2024-02-23T13:50:54;10.80;99.90
17956;DHT22;27666;51.498;11.966;2024-02-23T13:53:42;10.80;99.90
17956;DHT22;27666;51.498;11.966;2024-02-23T13:56:28;10.70;99.90
17956;DHT22;27666;51.498;11.966;2024-02-23T13:59:15;10.70;99.90
17956;DHT22;27666;51.498;11.966;2024-02-23T14:02:02;10.70;99.90
17956;DHT22;27666;51.498;11.966;2024-02-23T14:04:48;10.70;99.90
17956;DHT22;27666;51.498;11.966;2024-02-23T14:07:36;10.80;99.90
17956;DHT22;27666;51.498;11.966;2024-02-23T14:10:22;10.80;99.90
17956;DHT22;27666;51.498;11.966;2024-02-23T14:13:09;10.70;99.90
17956;DHT22;27666;51.498;11.966;2024-02-23T14:15:55;10.70;99.90
17956;DHT22;27666;51.498;11.966;2024-02-23T14:18:42;10.80;99.90
17956;DHT22;27666;51.498;11.966;2024-02-23T14:21:30;10.70;99.90
17956;DHT22;27666;51.498;11.966;2024-02-23T14:24:18;10.70;99.90
17956;DHT22;27666;51.498;11.966;2024-02-23T14:27:04;10.60;99.90
17956;DHT22;27666;51.498;11.966;2024-02-23T14:29:51;10.60;99.90
17956;DHT22;27666;51.498;11.966;2024-02-23T14:32:37;10.70;99.90
17956;DHT22;27666;51.498;11.966;2024-02-23T14:35:25;10.80;99.90
17956;DHT22;27666;51.498;11.966;2024-02-23T14:38:12;10.70;99.90
17956;DHT22;27666;51.498;11.966;2024-02-23T14:41:00;10.60;99.90
17956;DHT22;27666;51.498;11.966;2024-02-23T14:43:46;10.60;99.90
17956;DHT22;27666;51.498;11.966;2024-02-23T14:46:33;10.60;99.90
17956;DHT22;27666;51.498;11.966;2024-02-23T14:49:19;10.60;99.90
17956;DHT22;27666;51.498;11.966;2024-02-23T14:52:06;10.50;99.90
17956;DHT22;27666;51.498;11.966;2024-02-23T14:54:52;10.60;99.90
17956;DHT22;27666;51.498;11.966;2024-02-23T14:57:42;10.60;99.90
17956;DHT22;27666;51.498;11.966;2024-02-23T15:00:29;10.50;99.90
17956;DHT22;27666;51.498;11.966;2024-02-23T15:03:15;10.40;99.90
17956;DHT22;27666;51.498;11.966;2024-02-23T15:06:02;10.30;99.90
17956;DHT22;27666;51.498;11.966;2024-02-23T15:08:48;10.30;99.90
17956;DHT22;27666;51.498;11.966;2024-02-23T15:11:35;10.30;99.90
17956;DHT22;27666;51.498;11.966;2024-02-23T15:14:23;10.30;99.90
17956;DHT22;27666;51.498;11.966;2024-02-23T15:17:09;10.30;99.90
17956;DHT22;27666;51.498;11.966;2024-02-23T15:19:58;10.30;99.90
17956;DHT22;27666;51.498;11.966;2024-02-23T15:22:47;10.40;99.90
17956;DHT22;27666;51.498;11.966;2024-02-23T15:25:35;10.30;99.90
17956;DHT22;27666;51.498;11.966;2024-02-23T15:28:29;10.30;99.90
17956;DHT22;27666;51.498;11.966;2024-02-23T15:31:17;10.20;99.90
17956;DHT22;27666;51.498;11.966;2024-02-23T15:34:03;10.20;99.90
17956;DHT22;27666;51.498;11.966;2024-02-23T15:36:51;10.10;99.90
17956;DHT22;27666;51.498;11.966;2024-02-23T15:39:40;10.20;99.90
17956;DHT22;27666;51.498;11.966;2024-02-23T15:42:27;10.30;99.90
17956;DHT22;27666;51.498;11.966;2024-02-23T15:45:13;10.10;99.90
17956;DHT22;27666;51.498;11.966;2024-02-23T15:48:01;10.00;99.90
17956;DHT22;27666;51.498;11.966;2024-02-23T15:50:48;10.00;99.90
17956;DHT22;27666;51.498;11.966;2024-02-23T15:53:55;10.10;99.90
17956;DHT22;27666;51.498;11.966;2024-02-23T15:56:42;10.00;99.90
17956;DHT22;27666;51.498;11.966;2024-02-23T15:59:29;9.90;99.90
17956;DHT22;27666;51.498;11.966;2024-02-23T16:02:16;9.90;99.90
17956;DHT22;27666;51.498;11.966;2024-02-23T16:05:05;10.00;99.90
17956;DHT22;27666;51.498;11.966;2024-02-23T16:07:52;9.90;99.90
17956;DHT22;27666;51.498;11.966;2024-02-23T16:10:40;10.00;99.90
17956;DHT22;27666;51.498;11.966;2024-02-23T16:13:27;9.90;99.90
17956;DHT22;27666;51.498;11.966;2024-02-23T16:16:15;9.80;99.90
17956;DHT22;27666;51.498;11.966;2024-02-23T16:19:02;9.80;99.90
17956;DHT22;27666;51.498;11.966;2024-02-23T16:21:50;9.80;99.90
17956;DHT22;27666;51.498;11.966;2024-02-23T16:24:38;9.70;99.90
17956;DHT22;27666;51.498;11.966;2024-02-23T16:27:27;9.70;99.90
17956;DHT22;27666;51.498;11.966;2024-02-23T16:30:14;9.70;99.90
17956;DHT22;27666;51.498;11.966;2024-02-23T16:33:00;9.60;99.90
17956;DHT22;27666;51.498;11.966;2024-02-23T16:35:47;9.60;99.90
17956;DHT22;27666;51.498;11.966;2024-02-23T16:38:35;9.60;99.90
17956;DHT22;27666;51.498;11.966;2024-02-23T16:41:22;9.60;99.90
17956;DHT22;27666;51.498;11.966;2024-02-23T16:44:09;9.50;99.90
17956;DHT22;27666;51.498;11.966;2024-02-23T16:46:56;9.40;99.90
17956;DHT22;27666;51.498;11.966;2024-02-23T16:49:43;9.50;99.90
17956;DHT22;27666;51.498;11.966;2024-02-23T16:52:30;9.40;99.90
17956;DHT22;27666;51.498;11.966;2024-02-23T16:55:18;9.50;99.90
17956;DHT22;27666;51.498;11.966;2024-02-23T16:58:04;9.40;99.90
17956;DHT22;27666;51.498;11.966;2024-02-23T17:00:51;9.50;99.90
17956;DHT22;27666;51.498;11.966;2024-02-23T17:03:38;9.30;99.90
17956;DHT22;27666;51.498;11.966;2024-02-23T17:06:25;9.50;99.90
17956;DHT22;27666;51.498;11.966;2024-02-23T17:09:11;9.30;99.90
17956;DHT22;27666;51.498;11.966;2024-02-23T17:11:59;9.20;99.90
17956;DHT22;27666;51.498;11.966;2024-02-23T17:14:46;9.20;99.90
17956;DHT22;27666;51.498;11.966;2024-02-23T17:17:32;9.30;99.90
17956;DHT22;27666;51.498;11.966;2024-02-23T17:20:19;9.20;99.90
17956;DHT22;27666;51.498;11.966;2024-02-23T17:23:06;9.30;99.90
17956;DHT22;27666;51.498;11.966;2024-02-23T17:25:53;9.20;99.90
17956;DHT22;27666;51.498;11.966;2024-02-23T17:28:41;9.20;99.90
17956;DHT22;27666;51.498;11.966;2024-02-23T17:31:28;9.20;99.90
17956;DHT22;27666;51.498;11.966;2024-02-23T17:34:14;9.10;99.90
17956;DHT22;27666;51.498;11.966;2024-02-23T17:37:02;9.20;99.90